sensor_id;sensor_type;location;lat;lon;timestamp;pressure;altitude;pressure_sealevel;temperature;humidity
49611;BME280;35515;48.766;9.176;2023-02-28T00:00:51;99056.00;;;-0.07;53.41
49611;BME280;35515;48.766;9.176;2023-02-28T00:03:17;99051.66;;;-0.19;53.49
49611;BME280;35515;48.766;9.176;2023-02-28T00:05:44;99059.03;;;-0.11;53.38
49611;BME280;35515;48.766;9.176;2023-02-28T00:08:10;99057.13;;;-0.09;53.08
49611;BME280;35515;48.766;9.176;2023-02-28T00:10:38;99057.06;;;0.13;52.61
49611;BME280;35515;48.766;9.176;2023-02-28T00:13:05;99056.59;;;-0.03;53.28
49611;BME280;35515;48.766;9.176;2023-02-28T00:15:32;99047.91;;;-0.05;53.37
49611;BME280;35515;48.766;9.176;2023-02-28T00:17:58;99051.53;;;-0.06;53.12
49611;BME280;35515;48.766;9.176;2023-02-28T00:20:26;99055.78;;;-0.04;53.04
49611;BME280;35515;48.766;9.176;2023-02-28T00:22:53;99059.28;;;-0.26;53.62
49611;BME280;35515;48.766;9.176;2023-02-28T00:25:20;99054.22;;;-0.29;54.27
49611;BME280;35515;48.766;9.176;2023-02-28T00:27:48;99053.47;;;-0.08;53.45
49611;BME280;35515;48.766;9.176;2023-02-28T00:30:15;99049.38;;;-0.24;54.17
49611;BME280;35515;48.766;9.176;2023-02-28T00:32:43;99049.88;;;-0.41;54.23
49611;BME280;35515;48.766;9.176;2023-02-28T00:35:09;99053.25;;;-0.28;54.21
49611;BME280;35515;48.766;9.176;2023-02-28T00:37:36;99058.59;;;-0.28;54.51
49611;BME280;35515;48.766;9.176;2023-02-28T00:40:03;99051.53;;;-0.18;54.13
49611;BME280;35515;48.766;9.176;2023-02-28T00:42:31;99044.56;;;-0.41;54.99
49611;BME280;35515;48.766;9.176;2023-02-28T00:44:59;99054.72;;;-0.46;54.86
49611;BME280;35515;48.766;9.176;2023-02-28T00:47:25;99047.44;;;-0.44;54.83
49611;BME280;35515;48.766;9.176;2023-02-28T00:49:51;99057.25;;;-0.45;54.94
49611;BME280;35515;48.766;9.176;2023-02-28T00:52:18;99052.03;;;-0.35;54.84
49611;BME280;35515;48.766;9.176;2023-02-28T00:54:44;99051.81;;;-0.32;54.55
49611;BME280;35515;48.766;9.176;2023-02-28T00:57:10;99046.34;;;-0.42;55.00
49611;BME280;35515;48.766;9.176;2023-02-28T00:59:37;99049.16;;;-0.43;55.31
49611;BME280;35515;48.766;9.176;2023-02-28T01:02:04;99055.44;;;-0.56;55.45
49611;BME280;35515;48.766;9.176;2023-02-28T01:04:31;99053.72;;;-0.45;55.80
49611;BME280;35515;48.766;9.176;2023-02-28T01:06:57;99047.81;;;-0.60;55.61
49611;BME280;35515;48.766;9.176;2023-02-28T01:09:23;99050.84;;;-0.65;56.10
49611;BME280;35515;48.766;9.176;2023-02-28T01:11:50;99049.97;;;-0.43;55.60
49611;BME280;35515;48.766;9.176;2023-02-28T01:14:17;99050.09;;;-0.44;55.31
49611;BME280;35515;48.766;9.176;2023-02-28T01:16:43;99039.00;;;-0.61;55.98
49611;BME280;35515;48.766;9.176;2023-02-28T01:19:11;99040.19;;;-0.54;56.16
49611;BME280;35515;48.766;9.176;2023-02-28T01:21:37;99043.09;;;-0.57;56.23
49611;BME280;35515;48.766;9.176;2023-02-28T01:24:04;99043.69;;;-0.64;56.68
49611;BME280;35515;48.766;9.176;2023-02-28T01:26:30;99039.69;;;-0.59;56.95
49611;BME280;35515;48.766;9.176;2023-02-28T01:28:57;99044.06;;;-0.46;56.46
49611;BME280;35515;48.766;9.176;2023-02-28T01:31:23;99044.31;;;-0.38;56.20
49611;BME280;35515;48.766;9.176;2023-02-28T01:33:49;99038.03;;;-0.60;56.69
49611;BME280;35515;48.766;9.176;2023-02-28T01:36:18;99043.56;;;-0.63;57.08
49611;BME280;35515;48.766;9.176;2023-02-28T01:38:45;99038.25;;;-0.63;56.86
49611;BME280;35515;48.766;9.176;2023-02-28T01:41:14;99043.44;;;-0.73;57.90
49611;BME280;35515;48.766;9.176;2023-02-28T01:43:55;99043.09;;;-0.57;57.40
49611;BME280;35515;48.766;9.176;2023-02-28T01:46:21;99043.94;;;-0.56;57.99
49611;BME280;35515;48.766;9.176;2023-02-28T01:48:48;99039.13;;;-0.62;57.96
49611;BME280;35515;48.766;9.176;2023-02-28T01:51:18;99039.00;;;-0.61;57.67
49611;BME280;35515;48.766;9.176;2023-02-28T01:53:47;99041.28;;;-0.68;58.03
49611;BME280;35515;48.766;9.176;2023-02-28T01:56:15;99040.91;;;-0.74;58.59
49611;BME280;35515;48.766;9.176;2023-02-28T01:58:45;99032.94;;;-0.63;58.34
49611;BME280;35515;48.766;9.176;2023-02-28T02:01:12;99023.72;;;-0.36;57.55
49611;BME280;35515;48.766;9.176;2023-02-28T02:03:46;99030.50;;;-0.43;57.52
49611;BME280;35515;48.766;9.176;2023-02-28T02:06:13;99022.78;;;-0.46;57.96
49611;BME280;35515;48.766;9.176;2023-02-28T02:08:40;99019.88;;;-0.32;57.63
49611;BME280;35515;48.766;9.176;2023-02-28T02:11:07;99020.81;;;-0.44;58.09
49611;BME280;35515;48.766;9.176;2023-02-28T02:13:43;99020.09;;;-0.58;58.68
49611;BME280;35515;48.766;9.176;2023-02-28T02:16:18;99019.38;;;-0.71;58.76
49611;BME280;35515;48.766;9.176;2023-02-28T02:18:50;99010.91;;;-0.76;59.58
49611;BME280;35515;48.766;9.176;2023-02-28T02:21:24;99011.41;;;-0.82;59.81
49611;BME280;35515;48.766;9.176;2023-02-28T02:24:19;99006.44;;;-0.53;59.15
49611;BME280;35515;48.766;9.176;2023-02-28T02:27:03;99003.53;;;-0.61;59.25
49611;BME280;35515;48.766;9.176;2023-02-28T02:29:36;99003.66;;;-0.74;59.86
49611;BME280;35515;48.766;9.176;2023-02-28T02:32:18;99005.38;;;-0.73;59.65
49611;BME280;35515;48.766;9.176;2023-02-28T02:34:53;99003.88;;;-0.43;59.26
49611;BME280;35515;48.766;9.176;2023-02-28T02:37:24;99003.31;;;-0.81;60.31
49611;BME280;35515;48.766;9.176;2023-02-28T02:39:58;99008.03;;;-0.73;60.33
49611;BME280;35515;48.766;9.176;2023-02-28T02:42:27;99002.44;;;-0.59;60.11
49611;BME280;35515;48.766;9.176;2023-02-28T02:44:56;99000.75;;;-0.71;60.89
49611;BME280;35515;48.766;9.176;2023-02-28T02:47:26;99003.53;;;-0.61;60.52
49611;BME280;35515;48.766;9.176;2023-02-28T02:49:56;99006.31;;;-0.63;60.67
49611;BME280;35515;48.766;9.176;2023-02-28T02:52:25;99000.28;;;-0.65;60.57
49611;BME280;35515;48.766;9.176;2023-02-28T02:54:54;98999.44;;;-0.77;60.97
49611;BME280;35515;48.766;9.176;2023-02-28T02:57:23;98995.91;;;-0.89;61.60
49611;BME280;35515;48.766;9.176;2023-02-28T02:59:50;99003.41;;;-0.71;61.54
49611;BME280;35515;48.766;9.176;2023-02-28T03:02:19;99011.88;;;-0.77;61.56
49611;BME280;35515;48.766;9.176;2023-02-28T03:04:48;99004.38;;;-0.83;61.94
49611;BME280;35515;48.766;9.176;2023-02-28T03:07:18;99003.66;;;-0.86;62.40
49611;BME280;35515;48.766;9.176;2023-02-28T03:09:49;99010.78;;;-0.75;62.08
49611;BME280;35515;48.766;9.176;2023-02-28T03:12:16;99011.53;;;-0.73;61.91
49611;BME280;35515;48.766;9.176;2023-02-28T03:14:46;99013.78;;;-0.91;62.80
49611;BME280;35515;48.766;9.176;2023-02-28T03:17:23;99008.22;;;-0.99;63.11
49611;BME280;35515;48.766;9.176;2023-02-28T03:19:58;99021.56;;;-0.65;62.12
49611;BME280;35515;48.766;9.176;2023-02-28T03:22:36;99016.59;;;-0.70;62.91
49611;BME280;35515;48.766;9.176;2023-02-28T03:25:07;99010.31;;;-0.80;63.02
49611;BME280;35515;48.766;9.176;2023-02-28T03:27:36;99007.50;;;-0.90;63.57
49611;BME280;35515;48.766;9.176;2023-02-28T03:30:06;99010.19;;;-0.90;63.76
49611;BME280;35515;48.766;9.176;2023-02-28T03:32:36;99004.97;;;-0.91;64.08
49611;BME280;35515;48.766;9.176;2023-02-28T03:35:06;99003.41;;;-0.94;64.28
49611;BME280;35515;48.766;9.176;2023-02-28T03:37:36;99011.16;;;-0.79;63.68
49611;BME280;35515;48.766;9.176;2023-02-28T03:40:05;99002.94;;;-0.88;63.98
49611;BME280;35515;48.766;9.176;2023-02-28T03:42:34;99000.16;;;-0.86;64.21
49611;BME280;35515;48.766;9.176;2023-02-28T03:45:02;99010.66;;;-0.96;64.55
49611;BME280;35515;48.766;9.176;2023-02-28T03:47:33;99009.97;;;-0.87;64.43
49611;BME280;35515;48.766;9.176;2023-02-28T03:50:03;99005.34;;;-0.96;64.83
49611;BME280;35515;48.766;9.176;2023-02-28T03:52:33;98999.06;;;-0.83;64.48
49611;BME280;35515;48.766;9.176;2023-02-28T03:55:03;98996.91;;;-0.78;64.44
49611;BME280;35515;48.766;9.176;2023-02-28T03:57:33;99005.59;;;-0.76;64.30
49611;BME280;35515;48.766;9.176;2023-02-28T04:00:04;99001.50;;;-0.69;64.39
49611;BME280;35515;48.766;9.176;2023-02-28T04:02:33;98998.59;;;-0.55;63.75
49611;BME280;35515;48.766;9.176;2023-02-28T04:04:59;98995.81;;;-0.53;63.96
49611;BME280;35515;48.766;9.176;2023-02-28T04:07:28;99003.88;;;-0.77;64.74
49611;BME280;35515;48.766;9.176;2023-02-28T04:09:54;99006.53;;;-0.77;64.90
49611;BME280;35515;48.766;9.176;2023-02-28T04:12:22;99012.38;;;-0.83;65.03
49611;BME280;35515;48.766;9.176;2023-02-28T04:14:49;99013.94;;;-0.81;65.16
49611;BME280;35515;48.766;9.176;2023-02-28T04:17:15;99006.81;;;-0.69;64.71
49611;BME280;35515;48.766;9.176;2023-02-28T04:19:42;99001.72;;;-0.72;64.64
49611;BME280;35515;48.766;9.176;2023-02-28T04:22:09;99006.94;;;-0.59;64.24
49611;BME280;35515;48.766;9.176;2023-02-28T04:24:35;99012.13;;;-0.69;65.35
49611;BME280;35515;48.766;9.176;2023-02-28T04:27:02;99017.22;;;-0.66;65.35
49611;BME280;35515;48.766;9.176;2023-02-28T04:29:31;99006.56;;;-0.43;64.55
49611;BME280;35515;48.766;9.176;2023-02-28T04:31:58;99013.31;;;-0.28;63.58
49611;BME280;35515;48.766;9.176;2023-02-28T04:34:25;99007.97;;;-0.17;63.34
49611;BME280;35515;48.766;9.176;2023-02-28T04:36:51;99004.72;;;-0.31;63.09
49611;BME280;35515;48.766;9.176;2023-02-28T04:39:19;99005.00;;;-0.69;65.11
49611;BME280;35515;48.766;9.176;2023-02-28T04:41:46;99002.69;;;-0.62;64.96
49611;BME280;35515;48.766;9.176;2023-02-28T04:44:12;99000.25;;;-0.54;64.43
49611;BME280;35515;48.766;9.176;2023-02-28T04:46:40;99000.88;;;-0.50;64.48
49611;BME280;35515;48.766;9.176;2023-02-28T04:49:07;98992.16;;;-0.52;64.72
49611;BME280;35515;48.766;9.176;2023-02-28T04:51:34;99007.28;;;-0.53;65.03
49611;BME280;35515;48.766;9.176;2023-02-28T04:54:00;98999.91;;;-0.49;64.78
49611;BME280;35515;48.766;9.176;2023-02-28T04:56:27;99005.84;;;-0.57;65.04
49611;BME280;35515;48.766;9.176;2023-02-28T04:58:53;98995.91;;;-0.43;64.78
49611;BME280;35515;48.766;9.176;2023-02-28T05:01:20;99003.50;;;-0.39;64.09
49611;BME280;35515;48.766;9.176;2023-02-28T05:03:49;99003.53;;;-0.61;65.31
49611;BME280;35515;48.766;9.176;2023-02-28T05:06:16;98998.09;;;-0.71;65.65
49611;BME280;35515;48.766;9.176;2023-02-28T05:08:43;99003.31;;;-0.81;66.51
49611;BME280;35515;48.766;9.176;2023-02-28T05:11:12;99001.50;;;-0.69;65.79
49611;BME280;35515;48.766;9.176;2023-02-28T05:13:39;99001.97;;;-0.53;65.06
49611;BME280;35515;48.766;9.176;2023-02-28T05:16:06;99002.94;;;-0.65;65.85
49611;BME280;35515;48.766;9.176;2023-02-28T05:18:32;99003.41;;;-0.37;64.96
49611;BME280;35515;48.766;9.176;2023-02-28T05:21:00;99001.94;;;-0.30;64.10
49611;BME280;35515;48.766;9.176;2023-02-28T05:23:27;99008.25;;;-0.54;65.35
49611;BME280;35515;48.766;9.176;2023-02-28T05:25:53;99003.16;;;-0.45;65.59
49611;BME280;35515;48.766;9.176;2023-02-28T05:28:20;99007.63;;;-0.46;64.88
49611;BME280;35515;48.766;9.176;2023-02-28T05:30:46;99008.59;;;-0.36;64.93
49611;BME280;35515;48.766;9.176;2023-02-28T05:33:13;99007.25;;;-0.30;65.13
49611;BME280;35515;48.766;9.176;2023-02-28T05:35:39;99010.66;;;-0.39;65.16
49611;BME280;35515;48.766;9.176;2023-02-28T05:38:07;99013.06;;;-0.36;65.15
49611;BME280;35515;48.766;9.176;2023-02-28T05:40:34;99014.25;;;-0.18;64.21
49611;BME280;35515;48.766;9.176;2023-02-28T05:43:00;99010.53;;;-0.26;64.77
49611;BME280;35515;48.766;9.176;2023-02-28T05:45:27;99008.44;;;-0.23;64.63
49611;BME280;35515;48.766;9.176;2023-02-28T05:47:53;99015.16;;;-0.51;65.66
49611;BME280;35515;48.766;9.176;2023-02-28T05:50:20;99012.00;;;-0.68;66.61
49611;BME280;35515;48.766;9.176;2023-02-28T05:52:48;99013.69;;;-0.55;66.38
49611;BME280;35515;48.766;9.176;2023-02-28T05:55:16;99015.16;;;-0.74;66.86
49611;BME280;35515;48.766;9.176;2023-02-28T05:57:43;99017.94;;;-0.75;67.09
49611;BME280;35515;48.766;9.176;2023-02-28T06:00:10;99028.22;;;-0.59;66.67
49611;BME280;35515;48.766;9.176;2023-02-28T06:02:38;99019.63;;;-0.52;66.65
49611;BME280;35515;48.766;9.176;2023-02-28T06:05:05;99014.63;;;-0.34;65.83
49611;BME280;35515;48.766;9.176;2023-02-28T06:07:31;99015.75;;;-0.47;66.12
49611;BME280;35515;48.766;9.176;2023-02-28T06:09:57;99022.06;;;-0.37;66.23
49611;BME280;35515;48.766;9.176;2023-02-28T06:12:25;99023.88;;;-0.49;66.62
49611;BME280;35515;48.766;9.176;2023-02-28T06:14:51;99018.66;;;-0.39;66.18
49611;BME280;35515;48.766;9.176;2023-02-28T06:17:18;99025.22;;;-0.55;67.03
49611;BME280;35515;48.766;9.176;2023-02-28T06:19:44;99028.22;;;-0.59;67.13
49611;BME280;35515;48.766;9.176;2023-02-28T06:22:10;99024.81;;;-0.61;67.04
49611;BME280;35515;48.766;9.176;2023-02-28T06:24:37;99029.78;;;-0.68;67.75
49611;BME280;35515;48.766;9.176;2023-02-28T06:27:03;99028.69;;;-0.43;67.46
49611;BME280;35515;48.766;9.176;2023-02-28T06:29:31;99033.19;;;-0.32;66.96
49611;BME280;35515;48.766;9.176;2023-02-28T06:31:57;99037.66;;;-0.21;66.10
49611;BME280;35515;48.766;9.176;2023-02-28T06:34:24;99037.75;;;-0.11;65.94
49611;BME280;35515;48.766;9.176;2023-02-28T06:36:51;99046.31;;;0.04;65.35
49611;BME280;35515;48.766;9.176;2023-02-28T06:39:17;99048.75;;;-0.05;65.58
49611;BME280;35515;48.766;9.176;2023-02-28T06:41:44;99045.59;;;-0.10;65.44
49611;BME280;35515;48.766;9.176;2023-02-28T06:44:11;99049.03;;;-0.30;66.04
49611;BME280;35515;48.766;9.176;2023-02-28T06:46:39;99053.34;;;-0.07;64.91
49611;BME280;35515;48.766;9.176;2023-02-28T06:49:06;99051.31;;;-0.26;65.63
49611;BME280;35515;48.766;9.176;2023-02-28T06:51:34;99049.41;;;-0.46;66.81
49611;BME280;35515;48.766;9.176;2023-02-28T06:54:01;99050.34;;;-0.25;66.03
49611;BME280;35515;48.766;9.176;2023-02-28T06:56:28;99055.44;;;-0.44;66.50
49611;BME280;35515;48.766;9.176;2023-02-28T06:58:54;99052.19;;;-0.25;66.13
49611;BME280;35515;48.766;9.176;2023-02-28T07:01:21;99052.06;;;-0.24;66.21
49611;BME280;35515;48.766;9.176;2023-02-28T07:03:50;99055.53;;;-0.23;65.45
49611;BME280;35515;48.766;9.176;2023-02-28T07:06:17;99053.00;;;-0.36;65.54
49611;BME280;35515;48.766;9.176;2023-02-28T07:08:43;99061.97;;;-0.37;65.51
49611;BME280;35515;48.766;9.176;2023-02-28T07:11:10;99064.66;;;-0.37;66.08
49611;BME280;35515;48.766;9.176;2023-02-28T07:13:36;99065.13;;;-0.32;65.97
49611;BME280;35515;48.766;9.176;2023-02-28T07:16:03;99067.88;;;-0.34;65.51
49611;BME280;35515;48.766;9.176;2023-02-28T07:18:30;99069.25;;;-0.28;65.30
49611;BME280;35515;48.766;9.176;2023-02-28T07:20:58;99070.56;;;-0.22;64.81
49611;BME280;35515;48.766;9.176;2023-02-28T07:23:27;99069.69;;;-0.23;64.75
49611;BME280;35515;48.766;9.176;2023-02-28T07:25:53;99068.50;;;-0.19;64.92
49611;BME280;35515;48.766;9.176;2023-02-28T07:28:20;99075.28;;;-0.26;65.01
49611;BME280;35515;48.766;9.176;2023-02-28T07:30:46;99065.34;;;-0.12;64.13
49611;BME280;35515;48.766;9.176;2023-02-28T07:33:13;99069.97;;;-0.14;63.79
49611;BME280;35515;48.766;9.176;2023-02-28T07:35:39;99069.56;;;-0.10;63.34
49611;BME280;35515;48.766;9.176;2023-02-28T07:38:07;99076.50;;;-0.19;63.56
49611;BME280;35515;48.766;9.176;2023-02-28T07:40:33;99072.47;;;-0.24;63.84
49611;BME280;35515;48.766;9.176;2023-02-28T07:43:00;99075.28;;;-0.14;62.81
49611;BME280;35515;48.766;9.176;2023-02-28T07:45:26;99069.34;;;-0.18;63.21
49611;BME280;35515;48.766;9.176;2023-02-28T07:47:53;99070.88;;;-0.04;62.82
49611;BME280;35515;48.766;9.176;2023-02-28T07:50:20;99077.09;;;-0.04;62.48
49611;BME280;35515;48.766;9.176;2023-02-28T07:52:46;99076.25;;;-0.27;62.89
49611;BME280;35515;48.766;9.176;2023-02-28T07:55:14;99082.78;;;-0.20;63.41
49611;BME280;35515;48.766;9.176;2023-02-28T07:57:41;99084.97;;;-0.25;63.55
49611;BME280;35515;48.766;9.176;2023-02-28T08:00:09;99086.06;;;-0.16;63.38
49611;BME280;35515;48.766;9.176;2023-02-28T08:02:36;99075.75;;;-0.21;63.33
49611;BME280;35515;48.766;9.176;2023-02-28T08:05:02;99083.38;;;-0.05;62.91
49611;BME280;35515;48.766;9.176;2023-02-28T08:07:29;99083.16;;;-0.13;63.21
49611;BME280;35515;48.766;9.176;2023-02-28T08:09:55;99082.38;;;0.08;61.91
49611;BME280;35515;48.766;9.176;2023-02-28T08:12:23;99095.13;;;0.04;62.20
49611;BME280;35515;48.766;9.176;2023-02-28T08:14:49;99093.19;;;-0.05;62.26
49611;BME280;35515;48.766;9.176;2023-02-28T08:17:16;99093.28;;;0.05;62.49
49611;BME280;35515;48.766;9.176;2023-02-28T08:19:42;99096.22;;;0.02;62.34
49611;BME280;35515;48.766;9.176;2023-02-28T08:22:10;99095.34;;;0.01;62.82
49611;BME280;35515;48.766;9.176;2023-02-28T08:24:37;99087.34;;;0.12;61.88
49611;BME280;35515;48.766;9.176;2023-02-28T08:27:03;99092.16;;;0.19;62.05
49611;BME280;35515;48.766;9.176;2023-02-28T08:29:31;99090.22;;;0.21;61.35
49611;BME280;35515;48.766;9.176;2023-02-28T08:31:57;99083.13;;;0.10;61.46
49611;BME280;35515;48.766;9.176;2023-02-28T08:34:24;99093.91;;;-0.03;61.98
49611;BME280;35515;48.766;9.176;2023-02-28T08:36:52;99099.00;;;0.00;61.43
49611;BME280;35515;48.766;9.176;2023-02-28T08:39:18;99107.69;;;0.02;61.94
49611;BME280;35515;48.766;9.176;2023-02-28T08:41:45;99100.53;;;0.14;61.96
49611;BME280;35515;48.766;9.176;2023-02-28T08:44:11;99095.47;;;0.11;62.28
49611;BME280;35515;48.766;9.176;2023-02-28T08:46:39;99092.84;;;0.32;61.20
49611;BME280;35515;48.766;9.176;2023-02-28T08:49:05;99098.94;;;0.34;60.73
49611;BME280;35515;48.766;9.176;2023-02-28T08:51:32;99097.84;;;0.25;61.03
49611;BME280;35515;48.766;9.176;2023-02-28T08:53:59;99100.44;;;0.04;61.79
49611;BME280;35515;48.766;9.176;2023-02-28T08:56:26;99094.97;;;0.17;61.17
49611;BME280;35515;48.766;9.176;2023-02-28T08:58:53;99104.16;;;0.13;61.99
49611;BME280;35515;48.766;9.176;2023-02-28T09:01:21;99104.88;;;0.26;61.76
49611;BME280;35515;48.766;9.176;2023-02-28T09:03:49;99108.53;;;0.14;61.37
49611;BME280;35515;48.766;9.176;2023-02-28T09:06:16;99103.22;;;0.03;61.87
49611;BME280;35515;48.766;9.176;2023-02-28T09:08:43;99114.34;;;0.08;61.51
49611;BME280;35515;48.766;9.176;2023-02-28T09:11:11;99105.16;;;0.01;61.86
49611;BME280;35515;48.766;9.176;2023-02-28T09:13:38;99111.47;;;0.11;61.57
49611;BME280;35515;48.766;9.176;2023-02-28T09:16:06;99108.53;;;0.14;61.72
49611;BME280;35515;48.766;9.176;2023-02-28T09:18:33;99099.94;;;0.10;61.57
49611;BME280;35515;48.766;9.176;2023-02-28T09:21:02;99107.81;;;0.12;61.70
49611;BME280;35515;48.766;9.176;2023-02-28T09:23:28;99105.63;;;0.17;61.67
49611;BME280;35515;48.766;9.176;2023-02-28T09:25:54;99114.44;;;0.29;60.96
49611;BME280;35515;48.766;9.176;2023-02-28T09:28:21;99112.25;;;0.45;61.23
49611;BME280;35515;48.766;9.176;2023-02-28T09:30:48;99122.13;;;0.55;61.14
49611;BME280;35515;48.766;9.176;2023-02-28T09:33:16;99116.84;;;0.43;60.89
49611;BME280;35515;48.766;9.176;2023-02-28T09:35:42;99119.63;;;0.42;60.94
49611;BME280;35515;48.766;9.176;2023-02-28T09:38:10;99119.28;;;0.35;60.99
49611;BME280;35515;48.766;9.176;2023-02-28T09:40:37;99111.03;;;0.38;60.84
49611;BME280;35515;48.766;9.176;2023-02-28T09:43:04;99129.09;;;0.35;60.98
49611;BME280;35515;48.766;9.176;2023-02-28T09:45:31;99126.06;;;0.28;60.91
49611;BME280;35515;48.766;9.176;2023-02-28T09:47:59;99126.19;;;0.38;61.18
49611;BME280;35515;48.766;9.176;2023-02-28T09:50:30;99124.84;;;0.43;60.92
49611;BME280;35515;48.766;9.176;2023-02-28T09:52:58;99125.53;;;0.57;60.33
49611;BME280;35515;48.766;9.176;2023-02-28T09:55:27;99131.81;;;0.56;60.32
49611;BME280;35515;48.766;9.176;2023-02-28T09:57:55;99134.75;;;0.53;60.27
49611;BME280;35515;48.766;9.176;2023-02-28T10:00:26;99136.28;;;0.66;60.04
49611;BME280;35515;48.766;9.176;2023-02-28T10:02:57;99132.44;;;0.59;59.60
49611;BME280;35515;48.766;9.176;2023-02-28T10:05:30;99124.03;;;0.64;60.31
49611;BME280;35515;48.766;9.176;2023-02-28T10:08:03;99126.34;;;0.69;59.96
49611;BME280;35515;48.766;9.176;2023-02-28T10:10:36;99131.63;;;0.80;59.60
49611;BME280;35515;48.766;9.176;2023-02-28T10:13:04;99129.97;;;0.68;59.46
49611;BME280;35515;48.766;9.176;2023-02-28T10:15:32;99133.53;;;0.89;59.00
49611;BME280;35515;48.766;9.176;2023-02-28T10:18:01;99140.75;;;0.77;59.96
49611;BME280;35515;48.766;9.176;2023-02-28T10:20:28;99144.94;;;0.91;59.34
49611;BME280;35515;48.766;9.176;2023-02-28T10:22:58;99147.75;;;0.78;58.80
49611;BME280;35515;48.766;9.176;2023-02-28T10:25:26;99154.91;;;0.78;59.56
49611;BME280;35515;48.766;9.176;2023-02-28T10:27:54;99150.28;;;0.80;59.22
49611;BME280;35515;48.766;9.176;2023-02-28T10:30:26;99159.78;;;1.05;58.17
49611;BME280;35515;48.766;9.176;2023-02-28T10:32:53;99155.31;;;1.06;58.12
49611;BME280;35515;48.766;9.176;2023-02-28T10:35:20;99150.47;;;0.99;58.94
49611;BME280;35515;48.766;9.176;2023-02-28T10:37:48;99147.16;;;1.07;58.44
49611;BME280;35515;48.766;9.176;2023-02-28T10:40:26;99146.19;;;1.08;58.36
49611;BME280;35515;48.766;9.176;2023-02-28T10:42:57;99141.44;;;1.33;58.28
49611;BME280;35515;48.766;9.176;2023-02-28T10:45:23;99139.53;;;1.24;58.85
49611;BME280;35515;48.766;9.176;2023-02-28T10:47:51;99143.28;;;1.32;58.22
49611;BME280;35515;48.766;9.176;2023-02-28T10:50:35;99146.78;;;1.33;57.42
49611;BME280;35515;48.766;9.176;2023-02-28T10:55:44;99141.97;;;1.27;57.78
49611;BME280;35515;48.766;9.176;2023-02-28T10:58:22;99133.38;;;1.23;57.45
49611;BME280;35515;48.766;9.176;2023-02-28T11:00:48;99138.72;;;1.44;57.06
49611;BME280;35515;48.766;9.176;2023-02-28T11:03:23;99134.94;;;1.26;57.53
49611;BME280;35515;48.766;9.176;2023-02-28T11:05:50;99139.16;;;1.28;57.66
49611;BME280;35515;48.766;9.176;2023-02-28T11:08:17;99140.19;;;1.37;57.43
49611;BME280;35515;48.766;9.176;2023-02-28T11:10:44;99152.31;;;1.41;56.78
49611;BME280;35515;48.766;9.176;2023-02-28T11:13:15;99139.41;;;1.46;56.94
49611;BME280;35515;48.766;9.176;2023-02-28T11:15:46;99144.06;;;1.44;57.14
49611;BME280;35515;48.766;9.176;2023-02-28T11:18:20;99140.09;;;1.39;57.14
49611;BME280;35515;48.766;9.176;2023-02-28T11:20:48;99136.75;;;1.46;57.01
49611;BME280;35515;48.766;9.176;2023-02-28T11:23:17;99122.69;;;1.44;57.08
49611;BME280;35515;48.766;9.176;2023-02-28T11:25:46;99117.81;;;1.49;56.76
49611;BME280;35515;48.766;9.176;2023-02-28T11:28:23;99121.72;;;1.45;56.86
49611;BME280;35515;48.766;9.176;2023-02-28T11:31:02;99117.72;;;1.61;57.02
49611;BME280;35515;48.766;9.176;2023-02-28T11:33:29;99128.97;;;1.64;56.55
49611;BME280;35515;48.766;9.176;2023-02-28T11:35:57;99127.41;;;1.62;56.16
49611;BME280;35515;48.766;9.176;2023-02-28T11:38:25;99122.81;;;1.95;55.30
49611;BME280;35515;48.766;9.176;2023-02-28T11:40:56;99122.81;;;1.95;55.17
49611;BME280;35515;48.766;9.176;2023-02-28T11:43:30;99111.06;;;1.86;56.16
49611;BME280;35515;48.766;9.176;2023-02-28T11:46:10;99113.91;;;1.94;55.74
49611;BME280;35515;48.766;9.176;2023-02-28T11:48:42;99116.72;;;1.93;55.24
49611;BME280;35515;48.766;9.176;2023-02-28T11:51:12;99119.84;;;1.98;55.27
49611;BME280;35515;48.766;9.176;2023-02-28T11:53:48;99116.03;;;1.91;56.01
49611;BME280;35515;48.766;9.176;2023-02-28T11:56:18;99111.97;;;1.96;56.02
49611;BME280;35515;48.766;9.176;2023-02-28T11:58:49;99109.97;;;1.89;55.86
49611;BME280;35515;48.766;9.176;2023-02-28T12:01:22;99097.06;;;1.94;55.96
49611;BME280;35515;48.766;9.176;2023-02-28T12:03:56;99101.88;;;2.10;54.47
49611;BME280;35515;48.766;9.176;2023-02-28T12:06:25;99094.53;;;2.02;55.12
49611;BME280;35515;48.766;9.176;2023-02-28T12:09:01;99092.75;;;2.12;55.42
49611;BME280;35515;48.766;9.176;2023-02-28T12:11:34;99090.97;;;2.23;54.33
49611;BME280;35515;48.766;9.176;2023-02-28T12:14:15;99097.38;;;2.10;54.51
49611;BME280;35515;48.766;9.176;2023-02-28T12:16:50;99096.97;;;2.15;55.35
49611;BME280;35515;48.766;9.176;2023-02-28T12:19:19;99084.31;;;2.17;54.92
49611;BME280;35515;48.766;9.176;2023-02-28T12:21:54;99083.09;;;2.31;54.08
49611;BME280;35515;48.766;9.176;2023-02-28T12:24:28;99091.50;;;2.26;53.77
49611;BME280;35515;48.766;9.176;2023-02-28T12:27:03;99087.47;;;2.32;54.42
49611;BME280;35515;48.766;9.176;2023-02-28T12:29:32;99085.47;;;2.34;54.25
49611;BME280;35515;48.766;9.176;2023-02-28T12:32:03;99087.31;;;2.43;53.51
49611;BME280;35515;48.766;9.176;2023-02-28T12:34:32;99085.38;;;2.55;53.48
49611;BME280;35515;48.766;9.176;2023-02-28T12:37:00;99078.28;;;2.34;53.62
49611;BME280;35515;48.766;9.176;2023-02-28T12:39:28;99072.09;;;2.44;53.32
49611;BME280;35515;48.766;9.176;2023-02-28T12:41:59;99074.53;;;2.47;53.49
49611;BME280;35515;48.766;9.176;2023-02-28T12:44:30;99067.88;;;2.41;54.79
49611;BME280;35515;48.766;9.176;2023-02-28T12:46:58;99070.44;;;2.43;54.32
49611;BME280;35515;48.766;9.176;2023-02-28T12:49:28;99072.13;;;2.54;54.21
49611;BME280;35515;48.766;9.176;2023-02-28T12:51:56;99064.81;;;2.85;52.95
49611;BME280;35515;48.766;9.176;2023-02-28T12:54:25;99058.31;;;2.88;52.51
49611;BME280;35515;48.766;9.176;2023-02-28T12:56:56;99055.66;;;2.78;53.04
49611;BME280;35515;48.766;9.176;2023-02-28T12:59:25;99055.94;;;2.84;52.55
49611;BME280;35515;48.766;9.176;2023-02-28T13:01:56;99061.00;;;2.97;52.28
49611;BME280;35515;48.766;9.176;2023-02-28T13:04:33;99054.38;;;3.01;52.51
49611;BME280;35515;48.766;9.176;2023-02-28T13:09:51;99052.97;;;2.97;52.56
49611;BME280;35515;48.766;9.176;2023-02-28T13:12:18;99050.00;;;3.00;52.84
49611;BME280;35515;48.766;9.176;2023-02-28T13:14:45;99049.56;;;3.15;51.96
49611;BME280;35515;48.766;9.176;2023-02-28T13:17:12;99049.94;;;3.30;51.83